createdAt,value
2018-07-17T00:01:01.520Z,48.07
2018-07-17T00:02:11.125Z,48.25
2018-07-17T00:03:20.663Z,48.54
2018-07-17T00:04:30.451Z,48.74
2018-07-17T00:05:40.255Z,48.07
2018-07-17T00:06:50.066Z,48.35
2018-07-17T00:07:59.856Z,48.25
2018-07-17T00:09:09.659Z,49.12
2018-07-17T00:10:19.724Z,47.87
2018-07-17T00:11:29.517Z,46.91
2018-07-17T00:12:39.727Z,46.53
2018-07-17T00:13:49.692Z,46.81
2018-07-17T00:14:59.772Z,47.3
2018-07-17T00:16:09.577Z,46.91
2018-07-17T00:17:19.648Z,46.81
2018-07-17T00:18:29.440Z,46.81
2018-07-17T00:19:39.598Z,46.72
2018-07-17T00:20:49.408Z,46.81
2018-07-17T00:21:59.215Z,46.5
2018-07-17T00:23:09.291Z,46.91
2018-07-17T00:24:18.825Z,47.1
2018-07-17T00:25:28.948Z,47.68
2018-07-17T00:26:39.013Z,47.87
2018-07-17T00:27:48.809Z,47.27
2018-07-17T00:28:58.611Z,47.77
2018-07-17T00:30:08.435Z,48.64
2018-07-17T00:31:18.556Z,49.29
2018-07-17T00:32:28.369Z,48.33
2018-07-17T00:33:38.183Z,48.23
2018-07-17T00:34:47.725Z,48.23
2018-07-17T00:35:57.794Z,49
2018-07-17T00:37:07.911Z,49.29
2018-07-17T00:38:17.986Z,49.67
2018-07-17T00:39:27.806Z,49.38
2018-07-17T00:40:37.865Z,50.15
2018-07-17T00:41:47.991Z,49.76
2018-07-17T00:42:58.123Z,50.05
2018-07-17T00:44:07.655Z,50.73
2018-07-17T00:45:17.716Z,50.6
2018-07-17T00:46:27.536Z,50.73
2018-07-17T00:47:37.631Z,50.82
2018-07-17T00:48:47.766Z,51.37
2018-07-17T00:49:57.833Z,51.18
2018-07-17T00:51:07.628Z,51.18
2018-07-17T00:52:17.430Z,50.7
2018-07-17T00:53:27.217Z,51.46
2018-07-17T00:54:37.071Z,50.99
2018-07-17T00:55:47.279Z,51.18
2018-07-17T00:56:57.100Z,50.89
2018-07-17T00:58:06.966Z,51.08
2018-07-17T00:59:16.787Z,51.34
2018-07-17T01:00:26.935Z,52.04
2018-07-17T01:01:37.018Z,51.25
2018-07-17T01:02:47.083Z,52.01
2018-07-17T01:03:56.874Z,52.2
2018-07-17T01:05:06.678Z,51.25
2018-07-17T01:06:16.800Z,50.67
2018-07-17T01:07:26.599Z,51.15
2018-07-17T01:08:35.599Z,51.82
2018-07-17T01:09:45.391Z,52.2
2018-07-17T01:10:55.195Z,52.5
2018-07-17T01:12:05.055Z,52.5
2018-07-17T01:13:15.180Z,51.73
2018-07-17T01:14:25.256Z,51.25
2018-07-17T01:15:35.056Z,50.87
2018-07-17T01:16:45.137Z,51.15
2018-07-17T01:17:55.001Z,51.82
2018-07-17T01:19:04.804Z,51.92
2018-07-17T01:20:14.598Z,52.5
2018-07-17T01:21:24.393Z,51.82
2018-07-17T01:22:33.662Z,51.15
2018-07-17T01:23:43.467Z,50.77
2018-07-17T01:24:53.315Z,53.64
2018-07-17T01:26:03.378Z,54.5
2018-07-17T01:27:13.195Z,52.5
2018-07-17T01:28:22.999Z,52.4
2018-07-17T01:29:32.584Z,53.26
2018-07-17T01:30:42.654Z,54.12
2018-07-17T01:31:52.711Z,54.99
2018-07-17T01:33:02.519Z,55.18
2018-07-17T01:34:12.594Z,55.36
2018-07-17T01:35:22.733Z,55.65
2018-07-17T01:36:32.797Z,55.56
2018-07-17T01:37:42.601Z,55.36
2018-07-17T01:38:52.683Z,55.27
2018-07-17T01:40:02.470Z,54.41
2018-07-17T01:41:12.268Z,54.32
2018-07-17T01:42:22.325Z,53.83
2018-07-17T01:43:32.396Z,53.55
2018-07-17T01:44:42.484Z,54.32
2018-07-17T01:45:52.553Z,53.55
2018-07-17T01:47:02.666Z,53.83
2018-07-17T01:48:12.471Z,54.41
2018-07-17T01:49:22.536Z,54.7
2018-07-17T01:50:32.337Z,54.79
2018-07-17T01:51:42.410Z,55.36
2018-07-17T01:52:52.473Z,55.08
2018-07-17T01:54:02.543Z,53.74
2018-07-17T01:55:12.360Z,54.12
2018-07-17T01:56:22.155Z,54.03
2018-07-17T01:57:31.695Z,53.93
2018-07-17T01:58:41.554Z,53.74
2018-07-17T01:59:51.637Z,52.5
2018-07-17T02:01:01.422Z,52.4
2018-07-17T02:02:11.488Z,51.92
2018-07-17T02:03:21.564Z,50.87
2018-07-17T02:04:31.128Z,51.06
2018-07-17T02:05:41.197Z,52.01
2018-07-17T02:06:51.275Z,51.34
2018-07-17T02:08:01.350Z,51.25
2018-07-17T02:09:10.900Z,51.73
2018-07-17T02:10:20.752Z,51.15
2018-07-17T02:11:30.895Z,50.87
2018-07-17T02:12:40.696Z,52.01
2018-07-17T02:13:50.761Z,50.96
2018-07-17T02:15:00.832Z,50.96
2018-07-17T02:16:10.960Z,51.15
2018-07-17T02:17:21.032Z,52.11
2018-07-17T02:18:30.847Z,51.82
2018-07-17T02:19:40.986Z,52.01
2018-07-17T02:20:51.066Z,51.82
2018-07-17T02:22:01.175Z,51.73
2018-07-17T02:23:10.969Z,52.11
2018-07-17T02:24:21.035Z,53.36
2018-07-17T02:25:31.117Z,52.87
2018-07-17T02:26:40.908Z,53.74
2018-07-17T02:27:51.017Z,53.74
2018-07-17T02:29:01.093Z,54.32
2018-07-17T02:30:10.644Z,54.41
2018-07-17T02:31:20.206Z,54.79
2018-07-17T02:32:30.302Z,55.46
2018-07-17T02:33:40.429Z,56.52
2018-07-17T02:34:50.235Z,57.19
2018-07-17T02:36:00.057Z,57.28
2018-07-17T02:37:09.874Z,57.86
2018-07-17T02:38:19.956Z,57.38
2018-07-17T02:39:29.764Z,56.77
2018-07-17T02:40:39.837Z,57.83
2018-07-17T02:41:49.362Z,57.73
2018-07-17T02:42:59.157Z,57.16
2018-07-17T02:44:08.688Z,56.61
2018-07-17T02:45:18.827Z,56.52
2018-07-17T02:46:28.919Z,56.52
2018-07-17T02:47:38.737Z,56.42
2018-07-17T02:48:48.798Z,57.67
2018-07-17T02:49:58.607Z,57.28
2018-07-17T02:51:08.158Z,56.52
2018-07-17T02:52:18.249Z,56.71
2018-07-17T02:53:28.327Z,57.28
2018-07-17T02:54:38.142Z,58.05
2018-07-17T02:55:47.658Z,58.15
2018-07-17T02:56:57.502Z,59.01
2018-07-17T02:58:07.308Z,59.11
2018-07-17T02:59:17.127Z,58.81
2018-07-17T03:04:47.062Z,57.28
2018-07-17T03:05:57.145Z,56.32
2018-07-17T03:07:07.130Z,57.67
2018-07-17T03:08:17.453Z,58.02
2018-07-17T03:09:27.040Z,58.24
2018-07-17T03:10:36.852Z,58.62
2018-07-17T03:11:46.936Z,58.69
2018-07-17T03:12:56.483Z,59.17
2018-07-17T03:14:05.745Z,59.55
2018-07-17T03:15:15.866Z,59.48
2018-07-17T03:16:25.668Z,59.2
2018-07-17T03:17:35.777Z,59.3
2018-07-17T03:18:45.315Z,59.48
2018-07-17T03:19:55.400Z,59.39
2018-07-17T03:21:04.999Z,59.2
2018-07-17T03:22:14.802Z,58.15
2018-07-17T03:23:24.612Z,57.86
2018-07-17T03:24:34.808Z,57.76
2018-07-17T03:25:45.100Z,58.24
2018-07-17T03:26:55.017Z,58.72
2018-07-17T03:28:04.823Z,58.53
2018-07-17T03:29:14.636Z,59.48
2018-07-17T03:30:24.702Z,59.48
2018-07-17T03:31:34.777Z,60.44
2018-07-17T03:32:44.921Z,59.48
2018-07-17T03:33:54.432Z,59.39
2018-07-17T03:35:03.977Z,59.58
2018-07-17T03:36:14.063Z,59.2
2018-07-17T03:37:23.984Z,59.3
2018-07-17T03:38:34.119Z,59.68
2018-07-17T03:39:43.923Z,60.25
2018-07-17T03:40:53.994Z,61.31
2018-07-17T03:42:03.526Z,61.88
2018-07-17T03:43:13.604Z,61.6
2018-07-17T03:44:23.459Z,61.5
2018-07-17T03:45:33.268Z,61.88
2018-07-17T03:46:42.790Z,61.69
2018-07-17T03:47:52.328Z,61.31
2018-07-17T03:49:02.400Z,61.69
2018-07-17T03:50:12.259Z,62.17
2018-07-17T03:51:22.341Z,63.03
2018-07-17T03:52:32.419Z,63.03
2018-07-17T03:53:42.485Z,62.17
2018-07-17T03:54:52.545Z,60.93
2018-07-17T03:56:02.686Z,59.2
2018-07-17T03:57:12.762Z,59.42
2018-07-17T03:58:22.831Z,59.13
2018-07-17T03:59:32.904Z,59.61
2018-07-17T04:00:42.433Z,60.96
2018-07-17T04:01:52.577Z,60.76
2018-07-17T04:03:02.840Z,61.05
2018-07-17T04:04:13.046Z,60.57
2018-07-17T04:05:22.971Z,61.91
2018-07-17T04:06:32.784Z,61.34
2018-07-17T04:07:42.663Z,60.67
2018-07-17T04:08:52.728Z,59.13
2018-07-17T04:10:02.772Z,59.74
2018-07-17T04:11:12.821Z,60.86
2018-07-17T04:12:22.615Z,62.3
2018-07-17T04:13:32.730Z,62.68
2018-07-17T04:14:42.911Z,63.45
2018-07-17T04:15:52.960Z,62.77
2018-07-17T04:17:02.758Z,60.47
2018-07-17T04:18:12.568Z,57.89
2018-07-17T04:19:22.699Z,61.63
2018-07-17T04:20:32.789Z,61.91
2018-07-17T04:21:42.331Z,62.23
2018-07-17T04:22:51.873Z,62.04
2018-07-17T04:24:01.947Z,62.81
2018-07-17T04:25:10.992Z,63.96
2018-07-17T04:26:21.064Z,63.96
2018-07-17T04:27:31.146Z,62.77
2018-07-17T04:28:40.947Z,62.23
2018-07-17T04:29:50.565Z,62.39
2018-07-17T04:31:00.506Z,63.16
2018-07-17T04:32:10.316Z,63.26
2018-07-17T04:33:20.374Z,63.16
2018-07-17T04:34:30.455Z,62.49
2018-07-17T04:35:39.982Z,62.87
2018-07-17T04:36:49.550Z,62.1
2018-07-17T04:37:59.630Z,60.76
2018-07-17T04:39:09.145Z,60.38
2018-07-17T04:40:18.957Z,59.52
2018-07-17T04:41:28.754Z,58.37
2018-07-17T04:42:38.873Z,58.08
2018-07-17T04:43:48.971Z,56.96
2018-07-17T04:44:58.773Z,56.29
2018-07-17T04:46:08.317Z,55.8
2018-07-17T04:47:18.384Z,56.67
2018-07-17T04:48:28.508Z,57.92
2018-07-17T04:49:38.560Z,58.11
2018-07-17T04:50:48.073Z,57.63
2018-07-17T04:51:57.886Z,56.29
2018-07-17T04:53:07.698Z,56.6
2018-07-17T04:54:17.555Z,56.29
2018-07-17T04:55:27.095Z,56.41
2018-07-17T04:56:36.894Z,57.18
2018-07-17T04:57:46.965Z,57.95
2018-07-17T04:58:56.505Z,58.14
2018-07-17T05:00:06.098Z,59.19
2018-07-17T05:01:15.620Z,60.92
2018-07-17T05:02:25.706Z,60.92
2018-07-17T05:03:35.496Z,60.82
2018-07-17T05:04:45.553Z,60.15
2018-07-17T05:05:55.688Z,58.71
2018-07-17T05:07:05.951Z,58.91
2018-07-17T05:08:15.742Z,58.91
2018-07-17T05:09:25.806Z,59.38
2018-07-17T05:10:35.880Z,59.29
2018-07-17T05:11:46.005Z,59
2018-07-17T05:12:55.619Z,57.65
2018-07-17T05:14:05.438Z,57.75
2018-07-17T05:15:14.968Z,57.85
2018-07-17T05:16:24.866Z,58.04
2018-07-17T05:17:34.730Z,58.33
2018-07-17T05:18:44.816Z,58.14
2018-07-17T05:19:54.607Z,58.17
2018-07-17T05:21:04.678Z,58.07
2018-07-17T05:22:14.502Z,57.59
2018-07-17T05:23:24.612Z,57.68
2018-07-17T05:24:34.669Z,57.78
2018-07-17T05:25:44.197Z,58.07
2018-07-17T05:26:54.260Z,58.17
2018-07-17T05:28:04.069Z,57.5
2018-07-17T05:29:13.651Z,56.53
2018-07-17T05:30:23.189Z,55.67
2018-07-17T05:31:33.006Z,55.41
2018-07-17T05:32:42.537Z,55.12
2018-07-17T05:33:52.619Z,53.97
2018-07-17T05:35:02.811Z,53.87
2018-07-17T05:36:13.140Z,55.34
2018-07-17T05:37:23.271Z,56.68
2018-07-17T05:38:33.426Z,56.88
2018-07-17T05:39:43.521Z,56.98
2018-07-17T05:40:53.641Z,56.78
2018-07-17T05:42:03.432Z,55.66
2018-07-17T05:43:13.497Z,55.08
2018-07-17T05:44:23.279Z,54.89
2018-07-17T05:45:33.353Z,55.37
2018-07-17T05:46:43.199Z,56.04
2018-07-17T05:47:53.001Z,56.71
2018-07-17T05:49:03.092Z,56.62
2018-07-17T05:50:12.946Z,57.48
2018-07-17T05:51:23.028Z,56.33
2018-07-17T05:52:32.607Z,57.48
2018-07-17T05:53:42.419Z,57.2
2018-07-17T05:54:52.215Z,57.77
2018-07-17T05:56:02.291Z,56.81
2018-07-17T05:57:11.547Z,56.91
2018-07-17T05:58:21.668Z,57.17
2018-07-17T05:59:31.475Z,59.19
2018-07-17T06:00:41.551Z,58.8
2018-07-17T06:01:51.622Z,58.8
2018-07-17T06:03:01.687Z,59.28
2018-07-17T06:04:11.533Z,58.99
2018-07-17T06:05:21.604Z,60.82
2018-07-17T06:06:31.686Z,60.31
2018-07-17T06:07:41.760Z,59.64
2018-07-17T06:08:51.570Z,59.25
2018-07-17T06:10:01.423Z,59.44
2018-07-17T06:11:10.695Z,59.54
2018-07-17T06:12:20.478Z,59.25
2018-07-17T06:13:30.522Z,58.77
2018-07-17T06:14:40.331Z,58.58
2018-07-17T06:15:50.180Z,58.51
2018-07-17T06:17:00.055Z,58.99
2018-07-17T06:18:10.137Z,57.17
2018-07-17T06:19:20.207Z,56.59
2018-07-17T06:20:30.278Z,56.78
2018-07-17T06:21:40.413Z,56.18
2018-07-17T06:22:50.219Z,54.96
2018-07-17T06:24:00.307Z,54.93
2018-07-17T06:25:09.949Z,56.76
2018-07-17T06:26:20.010Z,57.33
2018-07-17T06:27:29.608Z,57.33
2018-07-17T06:28:39.453Z,56.68
2018-07-17T06:29:49.266Z,56.49
2018-07-17T06:30:59.076Z,58.61
2018-07-17T06:32:08.634Z,59.47
2018-07-17T06:33:18.751Z,58.03
2018-07-17T06:34:28.831Z,55.69
2018-07-17T06:35:38.616Z,55.6
2018-07-17T06:36:48.704Z,54.93
2018-07-17T06:37:58.834Z,54.16
2018-07-17T06:39:09.226Z,53.01
2018-07-17T06:40:19.202Z,52.62
2018-07-17T06:41:29.001Z,53.01
2018-07-17T06:42:38.544Z,53.9
2018-07-17T06:43:48.347Z,52.75
2018-07-17T06:44:58.205Z,51.11
2018-07-17T06:46:08.022Z,51.98
2018-07-17T06:47:17.829Z,51.14
2018-07-17T06:48:27.900Z,50.08
2018-07-17T06:49:37.708Z,50.76
2018-07-17T06:50:47.423Z,50.85
2018-07-17T06:51:57.211Z,51.14
2018-07-17T06:53:06.742Z,50.56
2018-07-17T06:54:16.829Z,52.77
2018-07-17T06:55:26.926Z,52.58
2018-07-17T06:56:36.803Z,52.51
2018-07-17T06:57:46.600Z,52.8
2018-07-17T06:58:56.658Z,52.12
2018-07-17T07:00:06.738Z,50.71
2018-07-17T07:01:16.545Z,50.71
2018-07-17T07:02:26.664Z,49.46
2018-07-17T07:03:36.194Z,50.81
2018-07-17T07:04:46.271Z,50.23
2018-07-17T07:05:56.393Z,50.04
2018-07-17T07:07:06.482Z,49.65
2018-07-17T07:08:16.324Z,49.17
2018-07-17T07:09:26.128Z,48.49
2018-07-17T07:10:35.935Z,49.36
2018-07-17T07:11:46.021Z,50.13
2018-07-17T07:12:55.829Z,50.15
2018-07-17T07:14:04.861Z,49.48
2018-07-17T07:15:14.666Z,49.68
2018-07-17T07:16:24.747Z,49.19
2018-07-17T07:17:34.547Z,50.06
2018-07-17T07:18:44.629Z,50.15
2018-07-17T07:19:54.484Z,49.51
2018-07-17T07:21:04.017Z,49.29
2018-07-17T07:22:14.091Z,49.02
2018-07-17T07:23:24.263Z,48.64
2018-07-17T07:24:34.331Z,49.22
2018-07-17T07:25:44.477Z,48.93
2018-07-17T07:26:54.562Z,49.32
2018-07-17T07:28:03.830Z,49.22
2018-07-17T07:29:13.901Z,48.64
2018-07-17T07:30:23.423Z,48.74
2018-07-17T07:31:33.295Z,48.83
2018-07-17T07:32:43.374Z,49.12
2018-07-17T07:33:53.192Z,49.22
2018-07-17T07:35:03.271Z,48.93
2018-07-17T07:36:13.140Z,48.93
2018-07-17T07:37:23.431Z,48.06
2018-07-17T07:38:33.570Z,48.74
2018-07-17T07:39:43.675Z,48.54
2018-07-17T07:40:53.744Z,48.66
2018-07-17T07:42:03.545Z,48.57
2018-07-17T07:43:13.419Z,48.95
2018-07-17T07:44:23.022Z,48.66
2018-07-17T07:45:33.095Z,48.28
2018-07-17T07:46:42.907Z,48.49
2018-07-17T07:47:53.012Z,48.21
2018-07-17T07:49:03.131Z,47.53
2018-07-17T07:50:13.099Z,47.44
2018-07-17T07:51:22.921Z,46.97
2018-07-17T07:52:32.727Z,46.88
2018-07-17T07:53:42.523Z,46.97
2018-07-17T07:54:52.632Z,47.17
2018-07-17T07:56:02.717Z,47.09
2018-07-17T07:57:12.520Z,47.38
2018-07-17T07:58:22.582Z,47.29
2018-07-17T07:59:32.398Z,46.42
2018-07-17T08:00:42.255Z,46.42
2018-07-17T08:01:52.326Z,46.13
2018-07-17T08:03:02.134Z,45.57
2018-07-17T08:04:11.939Z,46.83
2018-07-17T08:05:21.535Z,46.06
2018-07-17T08:06:31.675Z,46.06
2018-07-17T08:07:41.753Z,45.98
2018-07-17T08:08:51.822Z,45.38
2018-07-17T08:10:01.627Z,45.89
2018-07-17T08:11:11.162Z,45.31
2018-07-17T08:12:21.417Z,45.59
2018-07-17T08:13:31.258Z,45.4
2018-07-17T08:14:41.080Z,45.21
2018-07-17T08:15:50.886Z,44.53
2018-07-17T08:17:00.706Z,44.17
2018-07-17T08:18:10.581Z,44.17
2018-07-17T08:19:20.723Z,44.26
2018-07-17T08:20:30.549Z,47.65
2018-07-17T08:21:40.348Z,49.1
2018-07-17T08:22:50.140Z,48.59
2018-07-17T08:24:00.292Z,49.55
2018-07-17T08:25:10.397Z,49.85
2018-07-17T08:26:20.194Z,49.37
2018-07-17T08:27:30.267Z,49.49
2018-07-17T08:28:39.792Z,49.58
2018-07-17T08:29:49.439Z,49.49
2018-07-17T08:30:59.791Z,49.58
2018-07-17T08:32:09.884Z,48.06
2018-07-17T08:33:19.693Z,47.09
2018-07-17T08:34:29.759Z,48.25
2018-07-17T08:35:39.896Z,48.35
2018-07-17T08:36:50.177Z,47.09
2018-07-17T08:38:00.037Z,46.34
2018-07-17T08:39:09.642Z,46.34
2018-07-17T08:40:19.458Z,45.47
2018-07-17T08:41:29.602Z,43.82
2018-07-17T08:42:39.680Z,42.96
2018-07-17T08:43:49.481Z,42.28
2018-07-17T08:44:59.561Z,43.15
2018-07-17T08:46:08.826Z,43.07
2018-07-17T08:47:18.965Z,41.14
2018-07-17T08:48:28.772Z,40.84
2018-07-17T08:49:38.845Z,39.97
2018-07-17T08:50:48.664Z,39.97
2018-07-17T08:51:58.479Z,39.97
2018-07-17T08:53:08.319Z,40.17
2018-07-17T08:54:18.133Z,39.69
2018-07-17T08:55:27.733Z,39.41
2018-07-17T08:56:37.822Z,39.7
2018-07-17T08:57:47.889Z,39.8
2018-07-17T08:58:57.748Z,39.7
2018-07-17T09:00:07.557Z,39.7
2018-07-17T09:01:16.815Z,39.24
2018-07-17T09:02:26.909Z,39.72
2018-07-17T09:03:36.984Z,39.04
2018-07-17T09:04:46.590Z,38.56
2018-07-17T09:05:56.127Z,38.37
2018-07-17T09:07:05.754Z,36.64
2018-07-17T09:08:15.023Z,37.03
2018-07-17T09:09:25.102Z,37.79
2018-07-17T09:10:35.254Z,36.93
2018-07-17T09:11:45.338Z,37.51
2018-07-17T09:12:55.142Z,38
2018-07-17T09:14:04.872Z,37.61
2018-07-17T09:15:14.941Z,37.43
2018-07-17T09:16:24.806Z,37.82
2018-07-17T09:17:34.607Z,36.95
2018-07-17T09:18:44.190Z,36.85
2018-07-17T09:19:54.265Z,36.68
2018-07-17T09:21:04.075Z,36.29
2018-07-17T09:22:13.941Z,36.38
2018-07-17T09:23:23.744Z,35.32
2018-07-17T09:24:33.559Z,35.72
2018-07-17T09:25:43.643Z,36.79
2018-07-17T09:26:53.201Z,36.89
2018-07-17T09:28:03.070Z,36.69
2018-07-17T09:29:12.711Z,36.69
2018-07-17T09:30:22.512Z,37.1
2018-07-17T09:31:32.336Z,37.3
2018-07-17T09:32:42.140Z,37.49
2018-07-17T09:33:52.272Z,37.01
2018-07-17T09:35:02.343Z,36.22
2018-07-17T09:36:12.165Z,35.66
2018-07-17T09:37:21.994Z,34.4
2018-07-17T09:38:32.070Z,34.79
2018-07-17T09:39:42.191Z,34.79
2018-07-17T09:40:51.728Z,35.1
2018-07-17T09:42:01.819Z,35.49
2018-07-17T09:43:11.631Z,35.68
2018-07-17T09:44:21.594Z,35.29
2018-07-17T09:45:32.216Z,34.7
2018-07-17T09:46:42.286Z,35.02
2018-07-17T09:47:51.880Z,35.02
2018-07-17T09:49:01.697Z,34.33
2018-07-17T09:50:11.230Z,34.53
2018-07-17T09:51:21.359Z,34.24
2018-07-17T09:52:31.161Z,32.87
2018-07-17T09:53:41.243Z,32.49
2018-07-17T09:54:51.097Z,32.2
2018-07-17T09:56:01.191Z,32.97
2018-07-17T09:57:10.774Z,32.87
2018-07-17T09:58:20.868Z,33.07
2018-07-17T09:59:30.678Z,32.2
2018-07-17T10:00:40.482Z,33.17
2018-07-17T10:01:50.548Z,32.49
2018-07-17T10:03:00.693Z,31.81
2018-07-17T10:04:10.769Z,33.26
2018-07-17T10:05:20.576Z,33.65
2018-07-17T10:06:30.590Z,32.87
2018-07-17T10:07:40.435Z,32.68
2018-07-17T10:08:50.030Z,33.36
2018-07-17T10:10:00.107Z,32.78
2018-07-17T10:11:09.923Z,32.97
2018-07-17T10:12:19.740Z,32.11
2018-07-17T10:13:29.804Z,32.99
2018-07-17T10:14:40.138Z,32.99
2018-07-17T10:15:50.337Z,33.58
2018-07-17T10:16:59.879Z,33.86
2018-07-17T10:18:09.683Z,33.49
2018-07-17T10:19:19.489Z,32.79
2018-07-17T10:20:29.223Z,33.2
2018-07-17T10:21:38.498Z,32.81
2018-07-17T10:22:48.038Z,32.62
2018-07-17T10:23:57.568Z,31.45
2018-07-17T10:25:07.375Z,32.23
2018-07-17T10:26:17.628Z,31.84
2018-07-17T10:27:28.084Z,31.73
2018-07-17T10:28:38.165Z,31.35
2018-07-17T10:29:47.980Z,31.64
2018-07-17T10:30:58.076Z,32.13
2018-07-17T10:32:08.175Z,31.24
2018-07-17T10:33:18.264Z,31.25
2018-07-17T10:34:28.077Z,31.64
2018-07-17T10:35:37.892Z,32.32
2018-07-17T10:36:47.449Z,32.81
2018-07-17T10:37:57.048Z,33.11
2018-07-17T10:39:06.870Z,33.49
2018-07-17T10:40:16.959Z,33.2
2018-07-17T10:41:26.780Z,32.73
2018-07-17T10:42:36.978Z,34.09
2018-07-17T10:43:47.159Z,33.61
2018-07-17T10:44:57.235Z,32.82
2018-07-17T10:46:07.072Z,32.73
2018-07-17T10:47:16.877Z,32.34
2018-07-17T10:48:27.028Z,33.12
2018-07-17T10:49:36.603Z,33.04
2018-07-17T10:50:46.420Z,32.84
2018-07-17T10:51:56.236Z,32.26
2018-07-17T10:53:05.793Z,32.16
2018-07-17T10:54:15.685Z,32.18
2018-07-17T10:55:25.276Z,31.88
2018-07-17T10:56:34.807Z,31.69
2018-07-17T10:57:44.352Z,30.54
2018-07-17T10:58:54.426Z,30.93
2018-07-17T11:00:03.708Z,31.12
2018-07-17T11:01:13.567Z,30.34
2018-07-17T11:02:23.111Z,30.05
2018-07-17T11:03:33.208Z,29.85
2018-07-17T11:04:43.016Z,29.96
2018-07-17T11:05:52.548Z,29.38
2018-07-17T11:07:02.677Z,29.38
2018-07-17T11:08:12.227Z,29.57
2018-07-17T11:09:22.494Z,29.96
2018-07-17T11:10:32.292Z,29.57
2018-07-17T11:11:41.814Z,29.67
2018-07-17T11:12:51.926Z,29.77
2018-07-17T11:14:02.071Z,29.86
2018-07-17T11:15:11.901Z,29.67
2018-07-17T11:16:21.995Z,29.67
2018-07-17T11:17:32.061Z,29.3
2018-07-17T11:18:41.921Z,29.98
2018-07-17T11:19:52.017Z,29.98
2018-07-17T11:21:02.096Z,29.98
2018-07-17T11:22:12.202Z,28.61
2018-07-17T11:23:22.280Z,27.93
2018-07-17T11:24:31.868Z,29
2018-07-17T11:25:41.942Z,29.2
2018-07-17T11:26:51.777Z,28.52
2018-07-17T11:28:01.865Z,26.86
2018-07-17T11:29:11.963Z,27.06
2018-07-17T11:30:21.826Z,27.94
2018-07-17T11:31:31.919Z,26.48
2018-07-17T11:32:42.028Z,26.97
2018-07-17T11:33:51.552Z,26.49
2018-07-17T11:35:01.075Z,26.78
2018-07-17T11:36:10.960Z,26.29
2018-07-17T11:37:21.050Z,25.72
2018-07-17T11:38:30.593Z,25.83
2018-07-17T11:39:40.449Z,26.32
2018-07-17T11:40:50.524Z,26.44
2018-07-17T11:42:00.390Z,25.57
2018-07-17T11:43:10.490Z,24.52
2018-07-17T11:44:20.565Z,23.94
2018-07-17T11:45:30.368Z,23.57
2018-07-17T11:46:40.464Z,23.3
2018-07-17T11:47:50.667Z,23.51
2018-07-17T11:49:00.974Z,22.94
2018-07-17T11:50:10.249Z,22.06
2018-07-17T11:51:20.353Z,21.97
2018-07-17T11:52:30.217Z,21.77
2018-07-17T11:53:40.398Z,22.06
2018-07-17T11:54:50.486Z,22.26
2018-07-17T11:56:00.303Z,21.67
2018-07-17T11:57:09.860Z,22.06
2018-07-17T11:58:19.416Z,22.26
2018-07-17T11:59:28.889Z,21.77
2018-07-17T12:00:39.727Z,21.18
2018-07-17T12:01:49.817Z,22.24
2018-07-17T12:02:59.906Z,23.4
2018-07-17T12:04:09.460Z,23.49
2018-07-17T12:05:19.583Z,24.16
2018-07-17T12:06:29.693Z,23.96
2018-07-17T12:07:39.785Z,22.98
2018-07-17T12:08:49.599Z,23.44
2018-07-17T12:09:59.159Z,24.42
2018-07-17T12:11:09.333Z,24.52
2018-07-17T12:12:19.481Z,24.24
2018-07-17T12:13:29.581Z,23.45
2018-07-17T12:14:39.386Z,24.81
2018-07-17T12:15:49.474Z,24.81
2018-07-17T12:16:59.617Z,23.93
2018-07-17T12:18:09.720Z,25.01
2018-07-17T12:19:19.565Z,25.96
2018-07-17T12:20:29.795Z,24.99
2018-07-17T12:21:40.849Z,25.48
2018-07-17T12:22:49.886Z,24.9
2018-07-17T12:23:59.442Z,24.41
2018-07-17T12:25:09.252Z,25.11
2018-07-17T12:26:19.357Z,25.68
2018-07-17T12:27:29.235Z,25.21
2018-07-17T12:28:39.091Z,24.62
2018-07-17T12:29:48.914Z,24.52
2018-07-17T12:30:58.734Z,24.7
2018-07-17T12:32:08.557Z,24.52
2018-07-17T12:33:18.637Z,24.9
2018-07-17T12:34:28.777Z,24.42
2018-07-17T12:35:38.592Z,25.22
2018-07-17T12:36:48.678Z,25.9
2018-07-17T12:37:58.497Z,25.12
2018-07-17T12:39:08.308Z,25.33
2018-07-17T12:40:18.150Z,24.57
2018-07-17T12:41:28.260Z,24.19
2018-07-17T12:42:38.082Z,23.22
2018-07-17T12:43:47.356Z,22.84
2018-07-17T12:44:56.623Z,22.95
2018-07-17T12:46:06.770Z,22.46
2018-07-17T12:47:16.586Z,22.27
2018-07-17T12:48:26.707Z,21.9
2018-07-17T12:49:36.551Z,21.72
2018-07-17T12:50:46.686Z,20.94
2018-07-17T12:51:56.836Z,21.05
2018-07-17T12:53:06.378Z,20.56
2018-07-17T12:54:16.456Z,20.37
2018-07-17T12:55:26.539Z,19.59
2018-07-17T12:56:36.362Z,19.19
2018-07-17T12:57:46.524Z,19.78
2018-07-17T12:58:56.413Z,19.65
2018-07-17T13:00:06.493Z,20.33
2018-07-17T13:01:16.583Z,20.53
2018-07-17T13:02:26.692Z,21.02
2018-07-17T13:03:36.864Z,20.35
2018-07-17T13:04:46.953Z,20.25
2018-07-17T13:05:57.058Z,19.37
2018-07-17T13:07:06.865Z,19.26
2018-07-17T13:08:16.709Z,19.15
2018-07-17T13:09:26.710Z,20.04
2018-07-17T13:10:36.550Z,20.53
2018-07-17T13:11:46.655Z,20.53
2018-07-17T13:12:56.751Z,20.83
2018-07-17T13:14:06.835Z,20.33
2018-07-17T13:15:16.998Z,21.22
2018-07-17T13:16:27.094Z,21.13
2018-07-17T13:17:37.422Z,20.65
2018-07-17T13:18:47.721Z,21.24
2018-07-17T13:19:57.825Z,20.75
2018-07-17T13:21:07.429Z,20.36
2018-07-17T13:22:16.965Z,19.77
2018-07-17T13:23:26.777Z,21.32
2018-07-17T13:24:36.873Z,21.02
2018-07-17T13:25:46.967Z,21.22
2018-07-17T13:26:56.837Z,21.01
2018-07-17T13:28:06.385Z,20.62
2018-07-17T13:29:16.194Z,21.39
2018-07-17T13:30:26.253Z,20.61
2018-07-17T13:31:36.356Z,21.09
2018-07-17T13:32:46.227Z,21.29
2018-07-17T13:33:56.044Z,21.78
2018-07-17T13:35:05.596Z,21.48
2018-07-17T13:36:15.406Z,21.58
2018-07-17T13:37:25.226Z,21.67
2018-07-17T13:38:35.366Z,22.46
2018-07-17T13:39:45.198Z,21.77
2018-07-17T13:40:54.485Z,22.66
2018-07-17T13:42:03.766Z,22.64
2018-07-17T13:43:13.894Z,22.94
2018-07-17T13:44:23.484Z,22.94
2018-07-17T13:45:33.285Z,22.74
2018-07-17T13:46:43.132Z,22.74
2018-07-17T13:47:53.225Z,22.94
2018-07-17T13:49:03.312Z,23.33
2018-07-17T13:50:13.318Z,23.33
2018-07-17T13:51:23.188Z,23.62
2018-07-17T13:52:32.746Z,22.83
2018-07-17T13:53:42.837Z,24
2018-07-17T13:54:52.919Z,23.41
2018-07-17T13:56:02.512Z,23.6
2018-07-17T13:57:12.455Z,23.99
2018-07-17T13:58:22.283Z,23.99
2018-07-17T13:59:32.365Z,24.38
2018-07-17T14:00:42.181Z,23.69
2018-07-17T14:01:52.321Z,23.1
2018-07-17T14:03:02.437Z,25.08
2018-07-17T14:04:11.977Z,24.76
2018-07-17T14:05:21.790Z,25.26
2018-07-17T14:06:31.932Z,25.54
2018-07-17T14:07:41.801Z,25.33
2018-07-17T14:08:51.882Z,25.23
2018-07-17T14:10:01.424Z,25.62
2018-07-17T14:11:11.515Z,25.63
2018-07-17T14:12:21.423Z,25.54
2018-07-17T14:13:31.132Z,25.54
2018-07-17T14:14:40.669Z,26.41
2018-07-17T14:15:50.754Z,24.65
2018-07-17T14:17:00.838Z,24.76
2018-07-17T14:18:10.657Z,24.68
2018-07-17T14:19:19.982Z,23.5
2018-07-17T14:20:29.535Z,23.02
2018-07-17T14:21:39.613Z,23.02
2018-07-17T14:22:49.159Z,23.89
2018-07-17T14:23:59.253Z,24
2018-07-17T14:25:09.120Z,22.82
2018-07-17T14:26:19.200Z,21.84
2018-07-17T14:27:29.296Z,21.86
2018-07-17T14:28:39.108Z,22.95
2018-07-17T14:29:49.256Z,22.96
2018-07-17T14:30:59.141Z,22.58
2018-07-17T14:32:09.308Z,21.61
2018-07-17T14:33:19.130Z,21.44
2018-07-17T14:34:28.954Z,21.16
2018-07-17T14:35:38.480Z,20.57
2018-07-17T14:36:48.408Z,19.41
2018-07-17T14:37:58.224Z,19.22
2018-07-17T14:39:09.017Z,18.43
2018-07-17T14:40:19.109Z,17.74
2018-07-17T14:41:29.310Z,19.41
2018-07-17T14:42:39.675Z,20.19
2018-07-17T14:43:49.771Z,19.12
2018-07-17T14:44:59.859Z,19.12
2018-07-17T14:46:09.408Z,19.41
2018-07-17T14:47:19.212Z,18.73
2018-07-17T14:48:29.379Z,18.73
2018-07-17T14:49:39.195Z,19.48
2018-07-17T14:50:49.034Z,20.73
2018-07-17T14:51:58.576Z,21.89
2018-07-17T14:53:08.129Z,21.97
2018-07-17T14:54:18.272Z,22.45
2018-07-17T14:55:28.102Z,23.03
2018-07-17T14:56:37.669Z,22.72
2018-07-17T14:57:47.778Z,23.02
2018-07-17T14:58:57.587Z,22.83
2018-07-17T15:00:07.291Z,21.07
2018-07-17T15:01:17.752Z,21.45
2018-07-17T15:02:27.843Z,21.46
2018-07-17T15:03:37.921Z,21.29
2018-07-17T15:04:47.463Z,20.8
2018-07-17T15:05:57.329Z,19.54
2018-07-17T15:07:07.152Z,19.07
2018-07-17T15:08:17.216Z,17.71